sensor_id;sensor_type;location;lat;lon;timestamp;temperature;humidity
152;DHT22;68;48.792;9.164;2023-02-01T00:00:31;4.20;94.10
152;DHT22;68;48.792;9.164;2023-02-01T00:02:59;4.30;94.20
152;DHT22;68;48.792;9.164;2023-02-01T00:05:26;4.20;94.30
152;DHT22;68;48.792;9.164;2023-02-01T00:07:53;4.30;94.10
152;DHT22;68;48.792;9.164;2023-02-01T00:10:20;4.40;94.80
152;DHT22;68;48.792;9.164;2023-02-01T00:12:46;4.40;95.50
152;DHT22;68;48.792;9.164;2023-02-01T00:15:13;4.40;95.50
152;DHT22;68;48.792;9.164;2023-02-01T00:17:42;4.40;95.80
152;DHT22;68;48.792;9.164;2023-02-01T00:20:10;4.40;95.50
152;DHT22;68;48.792;9.164;2023-02-01T00:22:36;4.40;95.90
152;DHT22;68;48.792;9.164;2023-02-01T00:25:04;4.40;95.80
152;DHT22;68;48.792;9.164;2023-02-01T00:27:31;4.50;95.90
152;DHT22;68;48.792;9.164;2023-02-01T00:29:58;4.50;96.30
152;DHT22;68;48.792;9.164;2023-02-01T00:32:24;4.40;96.20
152;DHT22;68;48.792;9.164;2023-02-01T00:34:52;4.40;96.00
152;DHT22;68;48.792;9.164;2023-02-01T00:37:19;4.40;96.00
152;DHT22;68;48.792;9.164;2023-02-01T00:39:47;4.40;96.00
152;DHT22;68;48.792;9.164;2023-02-01T00:42:13;4.50;96.20
152;DHT22;68;48.792;9.164;2023-02-01T00:44:40;4.50;96.90
152;DHT22;68;48.792;9.164;2023-02-01T00:47:07;4.40;96.60
152;DHT22;68;48.792;9.164;2023-02-01T00:49:33;4.40;96.20
152;DHT22;68;48.792;9.164;2023-02-01T00:52:02;4.50;96.80
152;DHT22;68;48.792;9.164;2023-02-01T00:54:28;4.60;96.70
152;DHT22;68;48.792;9.164;2023-02-01T00:56:55;4.50;97.10
152;DHT22;68;48.792;9.164;2023-02-01T00:59:22;4.50;97.20
152;DHT22;68;48.792;9.164;2023-02-01T01:01:49;4.50;97.10
152;DHT22;68;48.792;9.164;2023-02-01T01:04:15;4.60;97.10
152;DHT22;68;48.792;9.164;2023-02-01T01:06:42;4.60;97.30
152;DHT22;68;48.792;9.164;2023-02-01T01:09:10;4.60;97.40
152;DHT22;68;48.792;9.164;2023-02-01T01:11:37;4.60;97.30
152;DHT22;68;48.792;9.164;2023-02-01T01:14:05;4.50;97.10
152;DHT22;68;48.792;9.164;2023-02-01T01:16:33;4.50;97.20
152;DHT22;68;48.792;9.164;2023-02-01T01:19:00;4.50;97.10
152;DHT22;68;48.792;9.164;2023-02-01T01:21:28;4.50;97.00
152;DHT22;68;48.792;9.164;2023-02-01T01:23:55;4.50;97.00
152;DHT22;68;48.792;9.164;2023-02-01T01:26:25;4.60;97.10
152;DHT22;68;48.792;9.164;2023-02-01T01:28:54;4.60;97.30
152;DHT22;68;48.792;9.164;2023-02-01T01:31:21;4.60;97.40
152;DHT22;68;48.792;9.164;2023-02-01T01:33:49;4.60;97.30
152;DHT22;68;48.792;9.164;2023-02-01T01:36:16;4.60;97.40
152;DHT22;68;48.792;9.164;2023-02-01T01:38:43;4.60;97.30
152;DHT22;68;48.792;9.164;2023-02-01T01:41:14;4.70;97.50
152;DHT22;68;48.792;9.164;2023-02-01T01:43:51;4.70;97.60
152;DHT22;68;48.792;9.164;2023-02-01T01:46:19;4.70;97.50
152;DHT22;68;48.792;9.164;2023-02-01T01:48:49;4.70;97.60
152;DHT22;68;48.792;9.164;2023-02-01T01:51:19;4.80;97.60
152;DHT22;68;48.792;9.164;2023-02-01T01:53:51;4.80;97.60
152;DHT22;68;48.792;9.164;2023-02-01T01:56:20;4.80;97.60
152;DHT22;68;48.792;9.164;2023-02-01T01:58:49;5.00;97.50
152;DHT22;68;48.792;9.164;2023-02-01T02:01:16;5.00;97.60
152;DHT22;68;48.792;9.164;2023-02-01T02:03:44;5.00;97.40
152;DHT22;68;48.792;9.164;2023-02-01T02:06:19;5.00;97.30
152;DHT22;68;48.792;9.164;2023-02-01T02:08:46;5.00;97.40
152;DHT22;68;48.792;9.164;2023-02-01T02:11:15;5.00;97.50
152;DHT22;68;48.792;9.164;2023-02-01T02:13:45;5.00;97.30
152;DHT22;68;48.792;9.164;2023-02-01T02:16:35;5.00;97.50
152;DHT22;68;48.792;9.164;2023-02-01T02:19:28;5.00;97.30
152;DHT22;68;48.792;9.164;2023-02-01T02:28:06;4.80;97.50
152;DHT22;68;48.792;9.164;2023-02-01T02:30:55;4.80;97.60
152;DHT22;68;48.792;9.164;2023-02-01T02:33:41;4.90;97.50
152;DHT22;68;48.792;9.164;2023-02-01T02:36:17;5.00;97.60
152;DHT22;68;48.792;9.164;2023-02-01T02:38:51;5.00;97.40
152;DHT22;68;48.792;9.164;2023-02-01T02:41:22;5.00;97.40
152;DHT22;68;48.792;9.164;2023-02-01T02:44:12;5.00;97.40
152;DHT22;68;48.792;9.164;2023-02-01T02:47:02;5.00;97.40
152;DHT22;68;48.792;9.164;2023-02-01T02:49:54;4.90;97.40
152;DHT22;68;48.792;9.164;2023-02-01T02:52:41;4.80;97.60
152;DHT22;68;48.792;9.164;2023-02-01T02:55:27;4.90;97.60
152;DHT22;68;48.792;9.164;2023-02-01T02:57:56;4.90;97.50
152;DHT22;68;48.792;9.164;2023-02-01T03:00:42;4.90;97.50
152;DHT22;68;48.792;9.164;2023-02-01T03:03:26;4.80;97.60
152;DHT22;68;48.792;9.164;2023-02-01T03:06:14;4.70;97.60
152;DHT22;68;48.792;9.164;2023-02-01T03:08:43;4.80;97.40
152;DHT22;68;48.792;9.164;2023-02-01T03:11:12;4.80;97.40
152;DHT22;68;48.792;9.164;2023-02-01T03:13:43;4.70;97.40
152;DHT22;68;48.792;9.164;2023-02-01T03:16:13;4.90;97.20
152;DHT22;68;48.792;9.164;2023-02-01T03:18:47;4.80;97.40
152;DHT22;68;48.792;9.164;2023-02-01T03:21:20;4.90;97.10
152;DHT22;68;48.792;9.164;2023-02-01T03:23:49;4.90;97.40
152;DHT22;68;48.792;9.164;2023-02-01T03:26:18;4.90;97.30
152;DHT22;68;48.792;9.164;2023-02-01T03:28:52;4.90;97.30
152;DHT22;68;48.792;9.164;2023-02-01T03:31:21;4.90;97.30
152;DHT22;68;48.792;9.164;2023-02-01T03:33:48;4.70;97.20
152;DHT22;68;48.792;9.164;2023-02-01T03:36:20;4.70;96.90
152;DHT22;68;48.792;9.164;2023-02-01T03:38:55;4.90;96.80
152;DHT22;68;48.792;9.164;2023-02-01T03:41:28;4.80;96.70
152;DHT22;68;48.792;9.164;2023-02-01T03:44:02;4.70;96.80
152;DHT22;68;48.792;9.164;2023-02-01T03:46:33;4.70;96.80
152;DHT22;68;48.792;9.164;2023-02-01T03:49:02;4.60;96.40
152;DHT22;68;48.792;9.164;2023-02-01T03:51:32;4.60;96.20
152;DHT22;68;48.792;9.164;2023-02-01T03:54:01;4.50;95.80
152;DHT22;68;48.792;9.164;2023-02-01T03:56:29;4.60;95.80
152;DHT22;68;48.792;9.164;2023-02-01T03:58:57;4.60;96.00
152;DHT22;68;48.792;9.164;2023-02-01T04:01:26;4.70;96.00
152;DHT22;68;48.792;9.164;2023-02-01T04:03:53;4.80;96.20
152;DHT22;68;48.792;9.164;2023-02-01T04:06:20;4.80;96.50
152;DHT22;68;48.792;9.164;2023-02-01T04:08:48;4.80;96.30
152;DHT22;68;48.792;9.164;2023-02-01T04:11:15;4.90;96.10
152;DHT22;68;48.792;9.164;2023-02-01T04:13:42;4.90;95.90
152;DHT22;68;48.792;9.164;2023-02-01T04:16:09;5.00;96.00
152;DHT22;68;48.792;9.164;2023-02-01T04:18:36;5.00;96.20
152;DHT22;68;48.792;9.164;2023-02-01T04:21:03;5.00;96.30
152;DHT22;68;48.792;9.164;2023-02-01T04:23:30;5.00;96.70
152;DHT22;68;48.792;9.164;2023-02-01T04:26:01;5.10;96.70
152;DHT22;68;48.792;9.164;2023-02-01T04:28:28;5.20;97.00
152;DHT22;68;48.792;9.164;2023-02-01T04:30:55;4.90;96.80
152;DHT22;68;48.792;9.164;2023-02-01T04:33:22;4.90;96.30
152;DHT22;68;48.792;9.164;2023-02-01T04:35:49;4.90;96.10
152;DHT22;68;48.792;9.164;2023-02-01T04:38:16;4.80;95.60
152;DHT22;68;48.792;9.164;2023-02-01T04:40:43;5.00;95.10
152;DHT22;68;48.792;9.164;2023-02-01T04:43:11;5.20;95.80
152;DHT22;68;48.792;9.164;2023-02-01T04:45:37;5.30;96.60
152;DHT22;68;48.792;9.164;2023-02-01T04:48:05;5.10;97.00
152;DHT22;68;48.792;9.164;2023-02-01T04:50:31;5.00;97.00
152;DHT22;68;48.792;9.164;2023-02-01T04:52:58;5.00;96.90
152;DHT22;68;48.792;9.164;2023-02-01T04:55:25;4.90;96.60
152;DHT22;68;48.792;9.164;2023-02-01T04:57:52;4.90;96.60
152;DHT22;68;48.792;9.164;2023-02-01T05:00:20;5.00;96.80
152;DHT22;68;48.792;9.164;2023-02-01T05:02:47;5.00;97.00
152;DHT22;68;48.792;9.164;2023-02-01T05:05:14;5.00;97.00
152;DHT22;68;48.792;9.164;2023-02-01T05:07:41;5.20;97.00
152;DHT22;68;48.792;9.164;2023-02-01T05:10:08;5.30;97.20
152;DHT22;68;48.792;9.164;2023-02-01T05:12:35;5.30;97.40
152;DHT22;68;48.792;9.164;2023-02-01T05:15:21;5.40;97.40
152;DHT22;68;48.792;9.164;2023-02-01T05:17:47;5.20;97.50
152;DHT22;68;48.792;9.164;2023-02-01T05:20:14;5.20;97.50
152;DHT22;68;48.792;9.164;2023-02-01T05:22:41;5.20;97.50
152;DHT22;68;48.792;9.164;2023-02-01T05:25:08;5.20;97.60
152;DHT22;68;48.792;9.164;2023-02-01T05:27:35;5.10;97.40
152;DHT22;68;48.792;9.164;2023-02-01T05:30:03;5.10;97.60
152;DHT22;68;48.792;9.164;2023-02-01T05:32:31;5.00;97.40
152;DHT22;68;48.792;9.164;2023-02-01T05:34:58;5.10;97.40
152;DHT22;68;48.792;9.164;2023-02-01T05:37:25;5.10;97.40
152;DHT22;68;48.792;9.164;2023-02-01T05:39:52;5.20;97.60
152;DHT22;68;48.792;9.164;2023-02-01T05:42:19;5.10;97.50
152;DHT22;68;48.792;9.164;2023-02-01T05:44:46;5.10;97.50
152;DHT22;68;48.792;9.164;2023-02-01T05:47:12;5.10;97.50
152;DHT22;68;48.792;9.164;2023-02-01T05:49:40;5.20;97.60
152;DHT22;68;48.792;9.164;2023-02-01T05:52:07;5.30;97.40
152;DHT22;68;48.792;9.164;2023-02-01T05:54:34;5.20;97.70
152;DHT22;68;48.792;9.164;2023-02-01T05:57:01;5.10;97.50
152;DHT22;68;48.792;9.164;2023-02-01T05:59:27;5.00;97.20
152;DHT22;68;48.792;9.164;2023-02-01T06:01:54;4.90;96.70
152;DHT22;68;48.792;9.164;2023-02-01T06:04:21;4.90;95.50
152;DHT22;68;48.792;9.164;2023-02-01T06:06:49;5.00;94.60
152;DHT22;68;48.792;9.164;2023-02-01T06:09:16;5.00;94.00
152;DHT22;68;48.792;9.164;2023-02-01T06:11:43;4.90;93.40
152;DHT22;68;48.792;9.164;2023-02-01T06:14:10;4.70;92.00
152;DHT22;68;48.792;9.164;2023-02-01T06:16:36;4.70;91.40
152;DHT22;68;48.792;9.164;2023-02-01T06:19:03;4.80;91.10
152;DHT22;68;48.792;9.164;2023-02-01T06:21:30;4.90;91.00
152;DHT22;68;48.792;9.164;2023-02-01T06:23:58;4.90;91.50
152;DHT22;68;48.792;9.164;2023-02-01T06:26:25;4.90;92.70
152;DHT22;68;48.792;9.164;2023-02-01T06:28:53;4.80;91.90
152;DHT22;68;48.792;9.164;2023-02-01T06:31:20;4.70;92.20
152;DHT22;68;48.792;9.164;2023-02-01T06:33:48;4.80;92.00
152;DHT22;68;48.792;9.164;2023-02-01T06:36:15;4.80;91.50
152;DHT22;68;48.792;9.164;2023-02-01T06:38:44;4.70;91.80
152;DHT22;68;48.792;9.164;2023-02-01T06:41:12;4.70;90.30
152;DHT22;68;48.792;9.164;2023-02-01T06:43:39;4.80;91.10
152;DHT22;68;48.792;9.164;2023-02-01T06:46:07;4.80;92.90
152;DHT22;68;48.792;9.164;2023-02-01T06:48:34;4.90;93.00
152;DHT22;68;48.792;9.164;2023-02-01T06:51:01;4.90;93.70
152;DHT22;68;48.792;9.164;2023-02-01T06:53:28;5.00;94.10
152;DHT22;68;48.792;9.164;2023-02-01T06:55:56;4.90;94.70
152;DHT22;68;48.792;9.164;2023-02-01T06:58:27;5.00;94.70
152;DHT22;68;48.792;9.164;2023-02-01T07:00:54;5.00;94.70
152;DHT22;68;48.792;9.164;2023-02-01T07:03:21;5.10;95.20
152;DHT22;68;48.792;9.164;2023-02-01T07:05:48;5.10;94.90
152;DHT22;68;48.792;9.164;2023-02-01T07:08:14;5.20;95.10
152;DHT22;68;48.792;9.164;2023-02-01T07:10:41;5.20;95.20
152;DHT22;68;48.792;9.164;2023-02-01T07:13:08;5.40;95.90
152;DHT22;68;48.792;9.164;2023-02-01T07:15:36;5.40;95.70
152;DHT22;68;48.792;9.164;2023-02-01T07:18:03;5.50;96.60
152;DHT22;68;48.792;9.164;2023-02-01T07:20:30;5.60;97.00
152;DHT22;68;48.792;9.164;2023-02-01T07:22:57;5.70;97.30
152;DHT22;68;48.792;9.164;2023-02-01T07:25:24;6.00;97.40
152;DHT22;68;48.792;9.164;2023-02-01T07:27:51;6.20;97.40
152;DHT22;68;48.792;9.164;2023-02-01T07:30:18;6.20;96.90
152;DHT22;68;48.792;9.164;2023-02-01T07:32:46;6.30;96.80
152;DHT22;68;48.792;9.164;2023-02-01T07:35:13;6.40;96.60
152;DHT22;68;48.792;9.164;2023-02-01T07:37:40;6.30;96.00
152;DHT22;68;48.792;9.164;2023-02-01T07:40:08;6.00;96.50
152;DHT22;68;48.792;9.164;2023-02-01T07:42:35;6.10;96.90
152;DHT22;68;48.792;9.164;2023-02-01T07:45:02;5.90;96.80
152;DHT22;68;48.792;9.164;2023-02-01T07:47:29;5.50;97.20
152;DHT22;68;48.792;9.164;2023-02-01T07:49:57;5.40;97.30
152;DHT22;68;48.792;9.164;2023-02-01T07:52:24;5.60;97.40
152;DHT22;68;48.792;9.164;2023-02-01T07:54:53;5.60;97.50
152;DHT22;68;48.792;9.164;2023-02-01T07:57:20;5.60;97.60
152;DHT22;68;48.792;9.164;2023-02-01T07:59:47;5.50;97.40
152;DHT22;68;48.792;9.164;2023-02-01T08:02:46;5.50;97.30
152;DHT22;68;48.792;9.164;2023-02-01T08:05:14;5.50;96.90
152;DHT22;68;48.792;9.164;2023-02-01T08:07:41;5.50;96.20
152;DHT22;68;48.792;9.164;2023-02-01T08:10:08;5.50;95.60
152;DHT22;68;48.792;9.164;2023-02-01T08:12:36;5.60;95.10
152;DHT22;68;48.792;9.164;2023-02-01T08:15:04;5.60;94.70
152;DHT22;68;48.792;9.164;2023-02-01T08:17:31;5.60;95.30
152;DHT22;68;48.792;9.164;2023-02-01T08:19:58;5.60;95.40
152;DHT22;68;48.792;9.164;2023-02-01T08:22:31;5.50;95.60
152;DHT22;68;48.792;9.164;2023-02-01T08:24:58;5.50;95.70
152;DHT22;68;48.792;9.164;2023-02-01T08:27:26;5.50;95.30
152;DHT22;68;48.792;9.164;2023-02-01T08:29:53;5.50;95.00
152;DHT22;68;48.792;9.164;2023-02-01T08:32:20;5.60;95.10
152;DHT22;68;48.792;9.164;2023-02-01T08:34:47;5.70;95.40
152;DHT22;68;48.792;9.164;2023-02-01T08:37:13;5.90;95.10
152;DHT22;68;48.792;9.164;2023-02-01T08:39:41;5.90;93.60
152;DHT22;68;48.792;9.164;2023-02-01T08:42:10;6.10;93.50
152;DHT22;68;48.792;9.164;2023-02-01T08:44:54;6.10;92.80
152;DHT22;68;48.792;9.164;2023-02-01T08:47:21;6.10;92.20
152;DHT22;68;48.792;9.164;2023-02-01T08:49:48;6.10;92.20
152;DHT22;68;48.792;9.164;2023-02-01T08:52:15;6.20;91.90
152;DHT22;68;48.792;9.164;2023-02-01T08:54:43;6.30;91.10
152;DHT22;68;48.792;9.164;2023-02-01T08:57:10;6.30;91.00
152;DHT22;68;48.792;9.164;2023-02-01T08:59:37;6.50;90.90
152;DHT22;68;48.792;9.164;2023-02-01T09:02:04;6.50;90.60
152;DHT22;68;48.792;9.164;2023-02-01T09:04:30;6.40;89.80
152;DHT22;68;48.792;9.164;2023-02-01T09:06:58;6.30;90.10
152;DHT22;68;48.792;9.164;2023-02-01T09:09:27;6.20;90.50
152;DHT22;68;48.792;9.164;2023-02-01T09:11:55;6.20;90.40
152;DHT22;68;48.792;9.164;2023-02-01T09:14:22;6.20;90.00
152;DHT22;68;48.792;9.164;2023-02-01T09:16:48;6.30;90.10
152;DHT22;68;48.792;9.164;2023-02-01T09:19:15;6.20;89.30
152;DHT22;68;48.792;9.164;2023-02-01T09:21:42;6.10;90.20
152;DHT22;68;48.792;9.164;2023-02-01T09:24:10;6.10;90.30
152;DHT22;68;48.792;9.164;2023-02-01T09:26:37;6.10;90.70
152;DHT22;68;48.792;9.164;2023-02-01T09:29:05;6.10;90.70
152;DHT22;68;48.792;9.164;2023-02-01T09:31:36;6.10;90.60
152;DHT22;68;48.792;9.164;2023-02-01T09:34:04;6.30;90.40
152;DHT22;68;48.792;9.164;2023-02-01T09:36:31;6.30;90.10
152;DHT22;68;48.792;9.164;2023-02-01T09:38:58;6.30;89.40
152;DHT22;68;48.792;9.164;2023-02-01T09:41:32;6.30;89.70
152;DHT22;68;48.792;9.164;2023-02-01T09:44:10;6.50;89.40
152;DHT22;68;48.792;9.164;2023-02-01T09:46:39;6.40;89.30
152;DHT22;68;48.792;9.164;2023-02-01T09:49:11;6.50;88.70
152;DHT22;68;48.792;9.164;2023-02-01T09:51:42;6.60;88.20
152;DHT22;68;48.792;9.164;2023-02-01T09:54:13;6.60;88.40
152;DHT22;68;48.792;9.164;2023-02-01T09:56:45;6.60;88.00
152;DHT22;68;48.792;9.164;2023-02-01T09:59:23;6.60;88.10
152;DHT22;68;48.792;9.164;2023-02-01T10:01:51;6.50;88.80
152;DHT22;68;48.792;9.164;2023-02-01T10:04:18;6.50;88.20
152;DHT22;68;48.792;9.164;2023-02-01T10:06:54;6.60;87.70
152;DHT22;68;48.792;9.164;2023-02-01T10:09:36;6.60;87.20
152;DHT22;68;48.792;9.164;2023-02-01T10:18:34;6.40;87.10
152;DHT22;68;48.792;9.164;2023-02-01T10:21:10;6.50;87.80
152;DHT22;68;48.792;9.164;2023-02-01T10:24:11;6.60;87.10
152;DHT22;68;48.792;9.164;2023-02-01T10:26:44;6.60;86.30
152;DHT22;68;48.792;9.164;2023-02-01T10:29:16;6.60;85.40
152;DHT22;68;48.792;9.164;2023-02-01T10:31:45;6.70;85.20
152;DHT22;68;48.792;9.164;2023-02-01T10:34:17;6.60;85.60
152;DHT22;68;48.792;9.164;2023-02-01T10:36:52;6.70;85.60
152;DHT22;68;48.792;9.164;2023-02-01T10:39:20;6.90;84.10
152;DHT22;68;48.792;9.164;2023-02-01T10:41:47;6.80;85.10
152;DHT22;68;48.792;9.164;2023-02-01T10:44:16;6.80;84.40
152;DHT22;68;48.792;9.164;2023-02-01T10:46:45;6.90;85.20
152;DHT22;68;48.792;9.164;2023-02-01T10:49:16;6.90;84.10
152;DHT22;68;48.792;9.164;2023-02-01T10:51:47;6.90;83.60
152;DHT22;68;48.792;9.164;2023-02-01T10:54:17;6.90;83.10
152;DHT22;68;48.792;9.164;2023-02-01T10:56:46;7.00;83.80
152;DHT22;68;48.792;9.164;2023-02-01T10:59:16;6.80;84.10
152;DHT22;68;48.792;9.164;2023-02-01T11:01:46;6.80;84.10
152;DHT22;68;48.792;9.164;2023-02-01T11:04:15;6.90;84.60
152;DHT22;68;48.792;9.164;2023-02-01T11:06:43;6.80;84.10
152;DHT22;68;48.792;9.164;2023-02-01T11:09:16;6.70;83.30
152;DHT22;68;48.792;9.164;2023-02-01T11:11:57;6.70;83.80
152;DHT22;68;48.792;9.164;2023-02-01T11:14:34;6.80;83.00
152;DHT22;68;48.792;9.164;2023-02-01T11:17:16;6.80;82.60
152;DHT22;68;48.792;9.164;2023-02-01T11:19:44;6.90;82.50
152;DHT22;68;48.792;9.164;2023-02-01T11:22:12;6.80;82.50
152;DHT22;68;48.792;9.164;2023-02-01T11:24:41;6.90;82.40
152;DHT22;68;48.792;9.164;2023-02-01T11:27:15;6.70;83.40
152;DHT22;68;48.792;9.164;2023-02-01T11:29:44;6.60;82.50
152;DHT22;68;48.792;9.164;2023-02-01T11:32:14;6.80;81.90
152;DHT22;68;48.792;9.164;2023-02-01T11:34:44;6.70;82.70
152;DHT22;68;48.792;9.164;2023-02-01T11:37:17;6.80;82.00
152;DHT22;68;48.792;9.164;2023-02-01T11:39:54;6.80;81.90
152;DHT22;68;48.792;9.164;2023-02-01T11:42:21;6.90;81.70
152;DHT22;68;48.792;9.164;2023-02-01T11:44:48;6.80;81.60
152;DHT22;68;48.792;9.164;2023-02-01T11:47:22;6.90;81.20
152;DHT22;68;48.792;9.164;2023-02-01T11:49:50;6.80;80.90
152;DHT22;68;48.792;9.164;2023-02-01T11:52:26;6.70;81.50
152;DHT22;68;48.792;9.164;2023-02-01T11:55:08;6.80;81.20
152;DHT22;68;48.792;9.164;2023-02-01T11:57:46;6.90;81.30
152;DHT22;68;48.792;9.164;2023-02-01T12:00:35;7.00;80.50
152;DHT22;68;48.792;9.164;2023-02-01T12:03:43;7.30;79.60
152;DHT22;68;48.792;9.164;2023-02-01T12:06:18;7.10;79.00
152;DHT22;68;48.792;9.164;2023-02-01T12:09:04;7.10;79.20
152;DHT22;68;48.792;9.164;2023-02-01T12:11:42;7.10;79.90
152;DHT22;68;48.792;9.164;2023-02-01T12:14:22;6.90;79.80
152;DHT22;68;48.792;9.164;2023-02-01T12:17:03;6.90;79.40
152;DHT22;68;48.792;9.164;2023-02-01T12:19:49;7.00;80.10
152;DHT22;68;48.792;9.164;2023-02-01T12:22:34;7.00;79.60
152;DHT22;68;48.792;9.164;2023-02-01T12:25:20;7.00;79.20
152;DHT22;68;48.792;9.164;2023-02-01T12:30:59;7.00;79.10
152;DHT22;68;48.792;9.164;2023-02-01T12:33:39;7.00;78.70
152;DHT22;68;48.792;9.164;2023-02-01T12:36:14;6.90;78.90
152;DHT22;68;48.792;9.164;2023-02-01T12:38:53;6.80;80.00
152;DHT22;68;48.792;9.164;2023-02-01T12:41:45;6.70;79.60
152;DHT22;68;48.792;9.164;2023-02-01T12:44:24;6.90;79.80
152;DHT22;68;48.792;9.164;2023-02-01T12:46:55;6.80;80.30
152;DHT22;68;48.792;9.164;2023-02-01T12:49:30;6.70;80.30
152;DHT22;68;48.792;9.164;2023-02-01T12:52:03;6.80;80.80
152;DHT22;68;48.792;9.164;2023-02-01T12:54:36;6.80;81.20
152;DHT22;68;48.792;9.164;2023-02-01T12:57:06;6.80;80.70
152;DHT22;68;48.792;9.164;2023-02-01T12:59:36;6.60;81.60
152;DHT22;68;48.792;9.164;2023-02-01T13:02:10;6.60;81.50
152;DHT22;68;48.792;9.164;2023-02-01T13:04:54;6.50;82.40
152;DHT22;68;48.792;9.164;2023-02-01T13:07:28;6.60;83.20
152;DHT22;68;48.792;9.164;2023-02-01T13:09:59;6.50;83.50
152;DHT22;68;48.792;9.164;2023-02-01T13:12:31;6.40;83.50
152;DHT22;68;48.792;9.164;2023-02-01T13:15:02;6.40;84.30
152;DHT22;68;48.792;9.164;2023-02-01T13:17:32;6.50;83.80
152;DHT22;68;48.792;9.164;2023-02-01T13:20:03;6.50;83.90
152;DHT22;68;48.792;9.164;2023-02-01T13:22:34;6.50;83.10
152;DHT22;68;48.792;9.164;2023-02-01T13:25:07;6.50;83.20
152;DHT22;68;48.792;9.164;2023-02-01T13:27:38;6.60;83.10
152;DHT22;68;48.792;9.164;2023-02-01T13:30:11;6.80;82.50
152;DHT22;68;48.792;9.164;2023-02-01T13:35:51;6.60;81.70
152;DHT22;68;48.792;9.164;2023-02-01T13:38:53;6.60;82.40
152;DHT22;68;48.792;9.164;2023-02-01T13:41:27;6.70;82.50
152;DHT22;68;48.792;9.164;2023-02-01T13:43:57;6.70;82.40
152;DHT22;68;48.792;9.164;2023-02-01T13:46:25;6.70;81.90
152;DHT22;68;48.792;9.164;2023-02-01T13:48:53;6.70;81.90
152;DHT22;68;48.792;9.164;2023-02-01T13:51:34;6.60;84.20
152;DHT22;68;48.792;9.164;2023-02-01T13:54:03;6.40;86.30
152;DHT22;68;48.792;9.164;2023-02-01T13:56:40;6.40;87.00
152;DHT22;68;48.792;9.164;2023-02-01T14:02:47;6.30;88.20
152;DHT22;68;48.792;9.164;2023-02-01T14:08:23;6.40;87.20
152;DHT22;68;48.792;9.164;2023-02-01T14:10:54;6.50;86.40
152;DHT22;68;48.792;9.164;2023-02-01T14:13:26;6.30;86.40
152;DHT22;68;48.792;9.164;2023-02-01T14:16:12;6.30;86.50
152;DHT22;68;48.792;9.164;2023-02-01T14:19:00;6.40;85.40
152;DHT22;68;48.792;9.164;2023-02-01T14:21:29;6.40;85.00
152;DHT22;68;48.792;9.164;2023-02-01T14:23:59;6.30;84.40
152;DHT22;68;48.792;9.164;2023-02-01T14:26:42;6.40;84.40
152;DHT22;68;48.792;9.164;2023-02-01T14:29:24;6.50;84.20
152;DHT22;68;48.792;9.164;2023-02-01T14:32:01;6.30;84.00
152;DHT22;68;48.792;9.164;2023-02-01T14:34:37;6.40;84.40
152;DHT22;68;48.792;9.164;2023-02-01T14:37:10;6.40;83.50
152;DHT22;68;48.792;9.164;2023-02-01T14:39:50;6.30;84.10
152;DHT22;68;48.792;9.164;2023-02-01T14:42:24;6.30;83.90
152;DHT22;68;48.792;9.164;2023-02-01T14:44:53;6.30;83.40
152;DHT22;68;48.792;9.164;2023-02-01T14:47:33;6.30;83.50
152;DHT22;68;48.792;9.164;2023-02-01T14:50:18;6.20;84.10
152;DHT22;68;48.792;9.164;2023-02-01T14:52:50;6.10;85.20
152;DHT22;68;48.792;9.164;2023-02-01T14:55:21;6.20;85.60
152;DHT22;68;48.792;9.164;2023-02-01T14:57:54;6.10;85.70
152;DHT22;68;48.792;9.164;2023-02-01T15:00:24;6.10;85.70
152;DHT22;68;48.792;9.164;2023-02-01T15:02:53;6.10;85.90
152;DHT22;68;48.792;9.164;2023-02-01T15:05:27;6.20;86.10
152;DHT22;68;48.792;9.164;2023-02-01T15:07:57;6.20;85.50
152;DHT22;68;48.792;9.164;2023-02-01T15:10:25;6.20;85.70
152;DHT22;68;48.792;9.164;2023-02-01T15:12:53;6.20;85.10
152;DHT22;68;48.792;9.164;2023-02-01T15:15:22;6.10;84.70
152;DHT22;68;48.792;9.164;2023-02-01T15:17:50;6.10;85.10
152;DHT22;68;48.792;9.164;2023-02-01T15:20:19;6.20;85.00
152;DHT22;68;48.792;9.164;2023-02-01T15:22:53;6.20;85.40
152;DHT22;68;48.792;9.164;2023-02-01T15:25:22;6.20;84.80
152;DHT22;68;48.792;9.164;2023-02-01T15:27:49;6.10;85.30
152;DHT22;68;48.792;9.164;2023-02-01T15:30:19;6.10;84.70
152;DHT22;68;48.792;9.164;2023-02-01T15:32:48;6.10;85.10
152;DHT22;68;48.792;9.164;2023-02-01T15:35:35;6.10;85.20
152;DHT22;68;48.792;9.164;2023-02-01T15:38:21;6.10;85.20
152;DHT22;68;48.792;9.164;2023-02-01T15:40:57;6.30;85.00
152;DHT22;68;48.792;9.164;2023-02-01T15:43:26;6.20;84.60
152;DHT22;68;48.792;9.164;2023-02-01T15:45:57;6.30;84.80
152;DHT22;68;48.792;9.164;2023-02-01T15:48:34;6.30;84.40
152;DHT22;68;48.792;9.164;2023-02-01T15:51:01;6.20;84.00
152;DHT22;68;48.792;9.164;2023-02-01T15:53:29;6.20;84.20
152;DHT22;68;48.792;9.164;2023-02-01T15:55:59;6.20;83.90
152;DHT22;68;48.792;9.164;2023-02-01T15:58:27;6.30;83.40
152;DHT22;68;48.792;9.164;2023-02-01T16:01:00;6.30;83.60
152;DHT22;68;48.792;9.164;2023-02-01T16:03:35;6.30;83.40
152;DHT22;68;48.792;9.164;2023-02-01T16:06:04;6.30;83.20
152;DHT22;68;48.792;9.164;2023-02-01T16:08:32;6.20;83.00
152;DHT22;68;48.792;9.164;2023-02-01T16:11:13;6.20;83.00
152;DHT22;68;48.792;9.164;2023-02-01T16:13:41;6.30;83.10
152;DHT22;68;48.792;9.164;2023-02-01T16:16:09;6.20;82.40
152;DHT22;68;48.792;9.164;2023-02-01T16:18:39;6.20;82.10
152;DHT22;68;48.792;9.164;2023-02-01T16:21:06;6.20;82.10
152;DHT22;68;48.792;9.164;2023-02-01T16:23:34;6.30;82.00
152;DHT22;68;48.792;9.164;2023-02-01T16:26:00;6.30;81.50
152;DHT22;68;48.792;9.164;2023-02-01T16:28:27;6.40;81.20
152;DHT22;68;48.792;9.164;2023-02-01T16:30:56;6.30;81.60
152;DHT22;68;48.792;9.164;2023-02-01T16:33:25;6.30;82.20
152;DHT22;68;48.792;9.164;2023-02-01T16:35:52;6.40;81.50
152;DHT22;68;48.792;9.164;2023-02-01T16:38:22;6.30;81.40
152;DHT22;68;48.792;9.164;2023-02-01T16:40:49;6.30;81.80
152;DHT22;68;48.792;9.164;2023-02-01T16:43:18;6.30;82.40
152;DHT22;68;48.792;9.164;2023-02-01T16:45:46;6.40;82.30
152;DHT22;68;48.792;9.164;2023-02-01T16:48:18;6.60;81.30
152;DHT22;68;48.792;9.164;2023-02-01T16:50:49;6.40;81.10
152;DHT22;68;48.792;9.164;2023-02-01T16:53:17;6.30;81.90
152;DHT22;68;48.792;9.164;2023-02-01T16:55:44;6.30;81.50
152;DHT22;68;48.792;9.164;2023-02-01T16:58:13;6.30;81.80
152;DHT22;68;48.792;9.164;2023-02-01T17:00:40;6.20;81.60
152;DHT22;68;48.792;9.164;2023-02-01T17:03:06;6.20;81.70
152;DHT22;68;48.792;9.164;2023-02-01T17:05:33;6.20;82.00
152;DHT22;68;48.792;9.164;2023-02-01T17:08:06;6.30;82.20
152;DHT22;68;48.792;9.164;2023-02-01T17:10:34;6.20;81.40
152;DHT22;68;48.792;9.164;2023-02-01T17:13:01;6.10;82.50
152;DHT22;68;48.792;9.164;2023-02-01T17:15:32;6.10;82.00
152;DHT22;68;48.792;9.164;2023-02-01T17:18:01;6.20;82.10
152;DHT22;68;48.792;9.164;2023-02-01T17:20:30;6.10;82.20
152;DHT22;68;48.792;9.164;2023-02-01T17:22:58;6.20;81.90
152;DHT22;68;48.792;9.164;2023-02-01T17:25:27;6.20;81.80
152;DHT22;68;48.792;9.164;2023-02-01T17:27:55;6.30;81.20
152;DHT22;68;48.792;9.164;2023-02-01T17:30:22;6.30;81.80
152;DHT22;68;48.792;9.164;2023-02-01T17:32:49;6.20;81.50
152;DHT22;68;48.792;9.164;2023-02-01T17:35:19;6.20;81.80
152;DHT22;68;48.792;9.164;2023-02-01T17:37:47;6.30;81.50
152;DHT22;68;48.792;9.164;2023-02-01T17:40:14;6.30;81.50
152;DHT22;68;48.792;9.164;2023-02-01T17:42:42;6.30;81.70
152;DHT22;68;48.792;9.164;2023-02-01T17:48:11;6.30;81.90
152;DHT22;68;48.792;9.164;2023-02-01T17:50:38;6.30;82.00
152;DHT22;68;48.792;9.164;2023-02-01T17:53:05;6.20;82.40
152;DHT22;68;48.792;9.164;2023-02-01T17:55:35;6.30;82.40
152;DHT22;68;48.792;9.164;2023-02-01T17:58:04;6.20;82.40
152;DHT22;68;48.792;9.164;2023-02-01T18:00:31;6.20;82.90